Time;durP1;ratioP1;P1;durP2;ratioP2;P2;SDS_P1;SDS_P2;PMS_P1;PMS_P2;Temp;Humidity;BMP_temperature;BMP_pressure;BME280_temperature;BME280_humidity;BME280_pressure;Samples;Min_cycle;Max_cycle;Signal;HPM_P1;HPM_P2
2023/02/05 00:01:17;;;;;;;11.83;6.20;;;-3.20;99.90;;;-3.35;67.20;102064.28;5045040;28;20210;-63
2023/02/05 00:03:45;;;;;;;13.10;6.53;;;-3.20;99.90;;;-3.29;67.51;102063.88;5047409;28;20719;-62
2023/02/05 00:06:13;;;;;;;13.77;5.83;;;-3.10;99.90;;;-3.23;67.38;102067.75;5037179;28;20709;-63
2023/02/05 00:08:43;;;;;;;14.27;5.40;;;-3.10;99.90;;;-3.17;67.16;102067.31;5040985;28;20271;-63
2023/02/05 00:11:12;;;;;;;10.83;6.17;;;-3.00;99.90;;;-3.13;67.27;102066.78;5042439;28;20210;-62
2023/02/05 00:13:42;;;;;;;10.80;6.13;;;-3.00;99.90;;;-3.08;67.20;102070.53;5047774;28;20553;-63
2023/02/05 00:16:13;;;;;;;10.03;6.27;;;-3.00;99.90;;;-3.07;66.61;102057.16;5049972;28;20194;-63
2023/02/05 00:18:42;;;;;;;11.87;5.90;;;-2.90;99.90;;;-3.05;66.38;102063.22;5045959;28;20654;-62
2023/02/05 00:21:12;;;;;;;11.10;6.03;;;-2.90;99.90;;;-3.05;66.72;102065.75;5050320;28;20217;-62
2023/02/05 00:23:40;;;;;;;10.80;5.53;;;-2.90;99.90;;;-3.02;66.89;102060.94;5044607;28;20203;-59
2023/02/05 00:26:12;;;;;;;11.83;5.90;;;-2.80;99.90;;;-2.99;66.49;102060.25;5049465;28;20221;-63
2023/02/05 00:28:41;;;;;;;9.70;6.10;;;-2.80;99.90;;;-2.92;65.96;102068.41;5050079;28;20593;-62
2023/02/05 00:31:13;;;;;;;9.83;5.83;;;-2.80;99.90;;;-2.89;66.07;102060.19;5048724;28;20237;-62
2023/02/05 00:33:42;;;;;;;11.97;6.27;;;-2.80;99.90;;;-2.86;65.48;102062.09;5049181;28;20206;-61
2023/02/05 00:36:11;;;;;;;10.53;5.67;;;-2.70;99.90;;;-2.83;65.51;102059.78;5044968;28;20198;-60
2023/02/05 00:38:40;;;;;;;11.17;5.90;;;-2.70;99.90;;;-2.80;65.87;102062.50;5047531;28;20210;-63
2023/02/05 00:41:10;;;;;;;12.50;6.23;;;-2.60;99.90;;;-2.78;65.79;102061.00;5051861;28;20198;-62
2023/02/05 00:43:39;;;;;;;13.67;5.87;;;-2.60;99.90;;;-2.74;65.69;102068.03;5054525;28;20209;-64
2023/02/05 00:46:09;;;;;;;10.60;6.10;;;-2.60;99.90;;;-2.68;65.45;102063.44;5051752;28;20257;-64
2023/02/05 00:48:37;;;;;;;11.33;6.17;;;-2.60;99.90;;;-2.62;64.81;102058.84;5050162;28;20237;-61
2023/02/05 00:51:06;;;;;;;13.37;6.50;;;-2.50;99.90;;;-2.58;65.52;102065.88;5051703;28;20210;-60
2023/02/05 00:53:35;;;;;;;10.77;6.17;;;-2.50;99.90;;;-2.56;65.09;102061.81;5051614;28;20244;-62
2023/02/05 00:56:03;;;;;;;13.00;6.33;;;-2.40;99.90;;;-2.54;64.75;102065.34;5045021;28;20248;-61
2023/02/05 00:58:34;;;;;;;13.00;5.83;;;-2.40;99.90;;;-2.51;65.08;102073.13;5052201;28;20583;-62
2023/02/05 01:01:03;;;;;;;13.60;6.17;;;-2.40;99.90;;;-2.50;65.05;102074.91;5053926;28;20609;-62
2023/02/05 01:03:31;;;;;;;11.27;5.97;;;-2.40;99.90;;;-2.45;65.12;102088.72;5054325;28;20208;-62
2023/02/05 01:06:02;;;;;;;9.97;5.63;;;-2.30;99.90;;;-2.45;64.62;102078.63;5046717;28;20257;-63
2023/02/05 01:08:30;;;;;;;9.43;5.67;;;-2.30;99.90;;;-2.42;64.49;102075.47;5044865;28;20919;-63
2023/02/05 01:10:59;;;;;;;12.43;6.00;;;-2.30;99.90;;;-2.40;63.99;102078.97;5052986;28;20691;-63
2023/02/05 01:13:28;;;;;;;10.50;6.20;;;-2.30;99.90;;;-2.39;63.91;102078.22;5053381;28;20275;-62
2023/02/05 01:15:57;;;;;;;9.93;5.73;;;-2.30;99.90;;;-2.38;64.50;102076.56;5056062;28;20221;-63
2023/02/05 01:18:26;;;;;;;10.63;5.70;;;-2.20;99.90;;;-2.36;63.60;102062.41;5053306;28;20202;-61
2023/02/05 01:20:54;;;;;;;11.87;6.17;;;-2.30;99.90;;;-2.36;63.72;102059.88;5050556;28;20202;-61
2023/02/05 01:23:23;;;;;;;11.23;5.57;;;-2.20;99.90;;;-2.31;63.60;102061.09;5049522;28;20251;-62
2023/02/05 01:25:51;;;;;;;8.47;5.40;;;-2.20;99.90;;;-2.29;64.33;102059.56;5045121;28;20198;-62
2023/02/05 01:28:20;;;;;;;11.13;5.53;;;-2.20;99.90;;;-2.24;63.74;102063.31;5053825;28;20586;-63
2023/02/05 01:30:49;;;;;;;9.30;5.73;;;-2.10;99.90;;;-2.22;63.45;102062.63;5050536;28;20273;-63
2023/02/05 01:33:19;;;;;;;12.43;6.27;;;-2.10;99.90;;;-2.16;63.14;102059.69;5053441;28;20515;-61
2023/02/05 01:35:48;;;;;;;12.57;6.60;;;-2.10;99.90;;;-2.15;63.67;102058.03;5051287;28;20474;-62
2023/02/05 01:38:16;;;;;;;12.27;5.67;;;-2.00;99.90;;;-2.12;62.83;102054.06;5052667;28;20565;-62
2023/02/05 01:40:45;;;;;;;12.53;6.23;;;-2.00;99.90;;;-2.14;62.85;102059.78;5048826;28;20249;-63
2023/02/05 01:43:14;;;;;;;12.17;6.07;;;-2.10;99.90;;;-2.14;62.55;102058.13;5046895;28;20234;-61
2023/02/05 01:46:00;;;;;;;11.47;5.67;;;-2.00;99.90;;;-2.13;63.19;102057.38;5053261;28;20214;-62
2023/02/05 01:48:36;;;;;;;10.57;5.53;;;-2.00;99.90;;;-2.14;63.09;102055.59;5053562;28;20206;-61
2023/02/05 01:51:08;;;;;;;12.30;5.97;;;-2.10;99.90;;;-2.14;63.05;102058.13;5050970;28;20202;-63
2023/02/05 01:53:38;;;;;;;13.17;5.97;;;-2.10;99.90;;;-2.16;63.08;102051.22;5052118;28;20569;-61
2023/02/05 01:56:10;;;;;;;11.37;5.73;;;-2.00;99.90;;;-2.20;63.38;102053.53;5050790;28;20631;-62
2023/02/05 01:58:45;;;;;;;11.63;5.83;;;-2.10;99.90;;;-2.22;62.85;102049.13;5052764;28;20628;-62
2023/02/05 02:01:14;;;;;;;10.70;5.77;;;-2.10;99.90;;;-2.24;62.75;102049.03;5046726;28;20233;-61
2023/02/05 02:03:45;;;;;;;13.87;6.20;;;-2.10;99.90;;;-2.24;63.19;102048.16;5048659;28;20710;-64
2023/02/05 02:06:13;;;;;;;9.33;5.63;;;-2.10;99.90;;;-2.24;63.12;102045.63;5049613;28;20205;-62
2023/02/05 02:08:42;;;;;;;12.10;5.43;;;-2.10;99.90;;;-2.25;63.43;102046.38;5053197;28;20202;-62
2023/02/05 02:11:16;;;;;;;12.03;5.40;;;-2.10;99.90;;;-2.28;63.06;102043.66;5053190;28;20670;-65
2023/02/05 02:13:46;;;;;;;13.03;6.10;;;-2.20;99.90;;;-2.32;62.89;102050.13;5052504;28;20190;-60
2023/02/05 02:16:15;;;;;;;15.77;5.83;;;-2.20;99.90;;;-2.34;63.07;102045.72;5048796;28;21536;-62
2023/02/05 02:18:46;;;;;;;12.17;6.30;;;-2.20;99.90;;;-2.33;62.92;102048.34;5052654;28;20706;-65
2023/02/05 02:21:41;;;;;;;13.20;6.00;;;-2.20;99.90;;;-2.33;63.05;102048.34;5048254;28;20256;-62
2023/02/05 02:24:37;;;;;;;12.37;5.60;;;-2.20;99.90;;;-2.30;63.26;102052.75;5051220;28;20646;-62
2023/02/05 02:27:40;;;;;;;11.60;5.63;;;-2.20;99.90;;;-2.30;63.07;102045.19;5052094;28;20272;-61
2023/02/05 02:30:17;;;;;;;15.20;4.93;;;-2.10;99.90;;;-2.31;63.29;102040.91;5048440;28;20269;-63
2023/02/05 02:32:58;;;;;;;11.03;5.00;;;-2.20;99.90;;;-2.31;62.86;102045.97;5048597;28;20194;-63
2023/02/05 02:35:32;;;;;;;9.17;5.27;;;-2.20;99.90;;;-2.34;62.81;102055.81;5049136;28;20244;-62
2023/02/05 02:38:10;;;;;;;10.97;4.27;;;-2.20;99.90;;;-2.35;62.91;102051.56;5046402;28;20224;-63
2023/02/05 02:40:43;;;;;;;7.97;4.53;;;-2.20;99.90;;;-2.38;63.11;102059.78;5051863;28;20202;-62
2023/02/05 02:43:17;;;;;;;9.80;4.27;;;-2.20;99.90;;;-2.41;63.57;102064.59;5051335;28;20240;-64
2023/02/05 02:45:53;;;;;;;7.33;4.13;;;-2.30;99.90;;;-2.42;63.70;102062.84;5049672;28;20244;-63
2023/02/05 02:48:25;;;;;;;9.83;4.80;;;-2.30;99.90;;;-2.44;63.29;102075.34;5050683;28;20248;-62
2023/02/05 02:50:56;;;;;;;8.40;4.30;;;-2.30;99.90;;;-2.45;63.56;102083.69;5046556;28;20697;-64
2023/02/05 02:53:30;;;;;;;7.80;4.10;;;-2.30;99.90;;;-2.44;63.39;102076.97;5052285;28;20232;-61
2023/02/05 02:56:02;;;;;;;6.97;4.20;;;-2.30;99.90;;;-2.45;63.90;102073.59;5045016;28;20256;-61
2023/02/05 02:58:36;;;;;;;8.47;4.80;;;-2.30;99.90;;;-2.44;63.54;102074.47;5051029;28;20206;-62
2023/02/05 03:01:07;;;;;;;8.07;4.30;;;-2.30;99.90;;;-2.37;63.86;102080.84;5049604;28;20557;-62
2023/02/05 03:03:40;;;;;;;9.40;4.80;;;-2.30;99.90;;;-2.37;63.45;102086.75;5051296;28;20260;-61
2023/02/05 03:06:11;;;;;;;8.37;4.43;;;-2.20;99.90;;;-2.34;63.21;102088.66;5050496;28;20676;-62
2023/02/05 03:08:50;;;;;;;10.93;4.63;;;-2.20;99.90;;;-2.32;63.69;102092.13;5049094;28;20275;-61
2023/02/05 03:11:18;;;;;;;9.20;4.53;;;-2.20;99.90;;;-2.26;63.18;102097.66;5047538;28;20233;-60
2023/02/05 03:13:48;;;;;;;8.77;4.13;;;-2.20;99.90;;;-2.27;63.29;102088.31;5051503;28;20228;-62
2023/02/05 03:16:19;;;;;;;9.87;4.10;;;-2.10;99.90;;;-2.27;63.03;102085.81;5049430;28;20210;-65
2023/02/05 03:18:49;;;;;;;7.50;4.23;;;-2.20;99.90;;;-2.23;62.96;102092.81;5051340;28;20222;-65
2023/02/05 03:21:23;;;;;;;7.70;4.07;;;-2.10;99.90;;;-2.22;63.30;102081.94;5049191;28;20209;-65
2023/02/05 03:23:52;;;;;;;6.70;4.07;;;-2.10;99.90;;;-2.18;63.44;102083.94;5051410;28;20625;-65
2023/02/05 03:26:26;;;;;;;7.73;4.63;;;-2.10;99.90;;;-2.14;62.95;102078.31;5045036;28;20206;-65
2023/02/05 03:28:58;;;;;;;6.93;4.07;;;-2.00;99.90;;;-2.12;62.92;102076.81;5047421;28;20723;-66
2023/02/05 03:31:36;;;;;;;5.40;3.63;;;-2.00;99.90;;;-2.09;62.84;102068.59;5051105;28;20651;-64
2023/02/05 03:34:19;;;;;;;6.47;3.77;;;-2.00;99.90;;;-2.08;62.91;102075.38;5051534;28;20206;-64
2023/02/05 03:37:07;;;;;;;7.10;3.60;;;-2.00;99.90;;;-2.09;62.68;102071.97;5047425;28;20228;-65
2023/02/05 03:39:50;;;;;;;7.47;4.27;;;-2.00;99.90;;;-2.12;62.56;102069.22;5049195;28;20210;-65
2023/02/05 03:42:36;;;;;;;8.00;4.10;;;-2.00;99.90;;;-2.10;62.87;102070.22;5039861;28;20232;-66
2023/02/05 03:45:42;;;;;;;6.37;3.70;;;-2.00;99.90;;;-2.08;62.60;102071.19;5043656;28;20241;-65
2023/02/05 03:48:28;;;;;;;5.47;3.40;;;-2.00;99.90;;;-2.08;62.54;102065.28;5046603;28;20236;-65
2023/02/05 03:51:12;;;;;;;4.87;3.33;;;-2.00;99.90;;;-2.10;62.91;102062.66;5049681;28;20198;-64
2023/02/05 03:53:50;;;;;;;7.43;3.80;;;-2.00;99.90;;;-2.06;62.56;102063.72;5036636;28;20285;-65
2023/02/05 03:56:25;;;;;;;7.00;3.50;;;-2.00;99.90;;;-2.06;62.36;102066.25;5050702;28;20561;-66
2023/02/05 03:58:57;;;;;;;8.63;3.50;;;-2.00;99.90;;;-2.08;62.85;102061.09;5036436;28;20233;-65
2023/02/05 04:01:27;;;;;;;5.83;3.37;;;-2.00;99.90;;;-2.06;62.26;102066.25;5043923;28;20202;-63
2023/02/05 04:03:56;;;;;;;5.87;3.73;;;-1.90;99.90;;;-2.06;62.31;102074.72;5037428;28;20211;-65
2023/02/05 04:06:25;;;;;;;8.00;3.67;;;-1.90;99.90;;;-2.05;62.20;102068.03;5049333;28;20338;-64
2023/02/05 04:08:53;;;;;;;5.17;3.37;;;-1.90;99.90;;;-2.03;62.92;102071.53;5048673;28;20275;-64
2023/02/05 04:11:22;;;;;;;5.80;3.60;;;-1.90;99.90;;;-2.02;62.50;102071.66;5049941;28;20635;-63
2023/02/05 04:13:50;;;;;;;5.23;3.30;;;-1.90;99.90;;;-1.99;62.05;102076.03;5049472;28;20256;-66
2023/02/05 04:16:18;;;;;;;6.77;3.33;;;-1.90;99.90;;;-1.98;62.50;102071.09;5050987;28;20297;-63
2023/02/05 04:18:48;;;;;;;4.37;3.37;;;-1.80;99.90;;;-1.96;62.20;102077.13;5050445;28;20539;-64
2023/02/05 04:21:17;;;;;;;7.50;4.00;;;-1.90;99.90;;;-1.99;62.34;102071.88;5053984;28;20263;-64
2023/02/05 04:23:45;;;;;;;7.73;4.00;;;-1.90;99.90;;;-2.01;61.98;102070.88;5054560;28;20210;-65
2023/02/05 04:26:16;;;;;;;11.00;4.27;;;-1.90;99.90;;;-2.00;62.15;102080.19;5053876;28;20205;-62
2023/02/05 04:28:45;;;;;;;6.50;3.83;;;-1.90;99.90;;;-1.98;62.54;102083.72;5052375;28;20230;-64
2023/02/05 04:31:13;;;;;;;6.17;3.57;;;-1.90;99.90;;;-1.97;62.51;102080.44;5051955;28;20245;-65
2023/02/05 04:33:42;;;;;;;7.60;3.83;;;-1.90;99.90;;;-1.95;61.93;102088.13;5054413;28;20737;-64
2023/02/05 04:36:12;;;;;;;6.67;4.07;;;-1.90;99.90;;;-1.96;62.31;102093.94;5043182;28;20217;-65
2023/02/05 04:38:40;;;;;;;5.43;3.93;;;-1.90;99.90;;;-2.00;62.14;102090.31;5053873;28;20650;-67
2023/02/05 04:41:09;;;;;;;6.63;3.53;;;-1.90;99.90;;;-2.02;62.30;102091.88;5049201;28;20198;-65
2023/02/05 04:43:38;;;;;;;8.23;3.93;;;-1.90;99.90;;;-2.03;62.12;102085.03;5054407;28;20214;-65
2023/02/05 04:46:07;;;;;;;6.40;3.90;;;-1.90;99.90;;;-2.02;62.77;102091.88;5051414;28;20256;-62
2023/02/05 04:48:36;;;;;;;7.10;4.20;;;-1.90;99.90;;;-1.99;62.38;102092.09;5046739;28;20312;-65
2023/02/05 04:51:07;;;;;;;7.67;3.73;;;-1.90;99.90;;;-1.97;62.52;102095.59;5051470;28;20256;-66
2023/02/05 04:53:38;;;;;;;6.87;3.80;;;-1.90;99.90;;;-1.96;62.55;102099.84;5052350;28;20256;-64
2023/02/05 04:56:08;;;;;;;7.00;4.00;;;-1.80;99.90;;;-1.95;62.57;102098.25;5052534;28;20240;-65
2023/02/05 04:58:37;;;;;;;6.70;4.23;;;-1.90;99.90;;;-1.92;62.65;102097.56;5052831;28;20310;-67
2023/02/05 05:01:11;;;;;;;6.90;4.50;;;-1.90;99.90;;;-1.91;62.30;102095.16;5050689;28;20708;-65
2023/02/05 05:03:40;;;;;;;7.00;3.77;;;-1.80;99.90;;;-1.91;62.04;102090.09;5049666;28;20210;-64
2023/02/05 05:06:09;;;;;;;5.93;3.77;;;-1.90;99.90;;;-1.95;62.17;102099.13;5047932;28;20217;-63
2023/02/05 05:08:39;;;;;;;6.07;3.83;;;-1.80;99.90;;;-1.99;62.42;102094.63;5054234;28;20631;-64
2023/02/05 05:11:10;;;;;;;6.73;4.20;;;-1.90;99.90;;;-1.98;62.12;102103.94;5053874;28;20202;-64
2023/02/05 05:13:38;;;;;;;5.97;4.10;;;-1.90;99.90;;;-2.01;62.25;102092.75;5052666;28;20642;-65
2023/02/05 05:16:09;;;;;;;6.70;3.73;;;-1.90;99.90;;;-1.97;62.46;102100.63;5052345;28;20260;-64
2023/02/05 05:18:40;;;;;;;6.03;3.47;;;-1.90;99.90;;;-1.97;62.42;102104.81;5052408;28;20197;-65
2023/02/05 05:21:09;;;;;;;6.53;4.37;;;-1.90;99.90;;;-1.96;62.09;102102.38;5044636;28;20213;-66
2023/02/05 05:23:39;;;;;;;8.70;4.03;;;-1.90;99.90;;;-1.99;61.93;102102.19;5051781;28;20256;-63
2023/02/05 05:26:11;;;;;;;7.07;3.77;;;-1.90;99.90;;;-2.00;62.57;102087.78;5052396;28;20205;-65
2023/02/05 05:28:40;;;;;;;7.67;4.20;;;-2.00;99.90;;;-2.01;62.21;102092.75;5052345;28;20237;-64
2023/02/05 05:31:11;;;;;;;6.90;3.80;;;-1.90;99.90;;;-2.01;62.08;102097.78;5052364;28;20241;-65
2023/02/05 05:33:40;;;;;;;6.20;4.13;;;-1.90;99.90;;;-2.04;62.17;102100.97;5052585;28;20206;-64
2023/02/05 05:36:09;;;;;;;6.37;4.23;;;-2.00;99.90;;;-2.07;62.85;102095.69;5050539;28;20274;-65
2023/02/05 05:38:39;;;;;;;7.50;4.57;;;-2.00;99.90;;;-2.07;62.24;102095.69;5048412;28;20291;-65
2023/02/05 05:43:55;;;;;;;8.57;4.83;;;-1.90;99.90;;;-2.00;62.14;102115.56;5052822;28;20198;-63
2023/02/05 05:46:25;;;;;;;10.83;4.47;;;-1.90;99.90;;;-2.01;62.81;102115.47;5051926;28;20473;-65
2023/02/05 05:48:56;;;;;;;8.83;4.50;;;-1.90;99.90;;;-2.01;62.70;102123.03;5052932;28;20222;-65
2023/02/05 05:51:27;;;;;;;9.80;4.70;;;-1.80;99.90;;;-2.03;63.04;102120.38;5052119;28;20252;-65
2023/02/05 05:53:57;;;;;;;8.67;4.40;;;-1.90;99.90;;;-2.03;62.99;102125.44;5051404;28;20237;-65
2023/02/05 05:56:25;;;;;;;9.87;5.43;;;-1.90;99.90;;;-2.06;62.57;102131.91;5047314;28;20202;-64
2023/02/05 05:58:54;;;;;;;10.67;5.20;;;-2.00;99.90;;;-2.12;62.86;102132.38;5041721;28;20202;-65
2023/02/05 06:01:22;;;;;;;7.10;4.40;;;-2.00;99.90;;;-2.16;62.77;102135.44;5050729;28;20654;-64
2023/02/05 06:03:51;;;;;;;6.10;4.10;;;-2.00;99.90;;;-2.17;62.83;102141.25;5050651;28;20234;-64
2023/02/05 06:06:19;;;;;;;9.10;3.97;;;-2.00;99.90;;;-2.17;62.86;102148.84;5049762;28;20546;-65
2023/02/05 06:08:48;;;;;;;7.57;4.30;;;-2.00;99.90;;;-2.20;63.29;102146.09;5051145;28;20265;-64
2023/02/05 06:11:18;;;;;;;8.27;4.53;;;-2.10;99.90;;;-2.26;62.93;102143.09;5051705;28;20206;-65
2023/02/05 06:13:46;;;;;;;6.10;3.47;;;-2.00;99.90;;;-2.24;63.65;102144.97;5049926;28;20240;-64
2023/02/05 06:16:14;;;;;;;6.00;4.20;;;-2.00;99.90;;;-2.23;63.24;102146.72;5047991;28;20206;-63
2023/02/05 06:18:43;;;;;;;5.17;3.80;;;-2.10;99.90;;;-2.27;63.28;102141.34;5051722;28;20390;-64
2023/02/05 06:21:11;;;;;;;6.93;3.60;;;-2.00;99.90;;;-2.22;63.22;102147.59;5051631;28;20233;-65
2023/02/05 06:23:40;;;;;;;7.50;4.43;;;-2.10;99.90;;;-2.22;63.31;102151.00;5052240;28;20240;-65
2023/02/05 06:26:08;;;;;;;6.40;3.97;;;-2.10;99.90;;;-2.20;63.72;102146.09;5051108;28;20209;-62
2023/02/05 06:28:38;;;;;;;5.97;3.90;;;-2.10;99.90;;;-2.17;63.87;102151.38;5043603;28;20697;-63
2023/02/05 06:31:06;;;;;;;6.53;4.07;;;-2.10;99.90;;;-2.15;63.16;102161.56;5053694;28;20245;-69
2023/02/05 06:33:35;;;;;;;5.10;3.30;;;-2.10;99.90;;;-2.12;63.36;102164.31;5061469;28;20294;-68
2023/02/05 06:36:04;;;;;;;6.83;3.93;;;-2.00;99.90;;;-2.09;63.88;102164.56;5055884;28;20741;-67
2023/02/05 06:38:32;;;;;;;5.50;3.90;;;-2.00;99.90;;;-2.08;63.37;102162.13;5047182;28;20291;-66
2023/02/05 06:41:01;;;;;;;4.53;3.40;;;-2.00;99.90;;;-2.08;63.47;102159.59;5055681;28;20205;-65
2023/02/05 06:43:29;;;;;;;5.43;4.00;;;-2.00;99.90;;;-2.04;63.42;102168.28;5068762;28;20233;-66
2023/02/05 06:45:59;;;;;;;5.27;3.83;;;-2.00;99.90;;;-2.05;63.20;102172.47;5049371;28;20209;-67
2023/02/05 06:48:28;;;;;;;5.93;3.47;;;-2.00;99.90;;;-2.08;63.49;102169.69;5043011;28;20645;-66
2023/02/05 06:50:56;;;;;;;4.80;3.43;;;-1.90;99.90;;;-2.06;63.22;102169.81;5046587;28;20229;-67
2023/02/05 06:53:24;;;;;;;5.23;3.43;;;-1.90;99.90;;;-2.06;62.96;102174.84;5042827;28;20214;-64
2023/02/05 06:55:53;;;;;;;5.78;3.67;;;-1.90;99.90;;;-2.02;63.34;102172.69;5051252;28;20483;-65
2023/02/05 06:58:21;;;;;;;5.93;3.40;;;-1.90;99.90;;;-1.99;63.73;102180.50;5046437;28;20315;-64
2023/02/05 07:00:50;;;;;;;5.83;3.80;;;-1.90;99.90;;;-1.93;63.93;102185.09;5048036;28;20201;-65
2023/02/05 07:03:19;;;;;;;5.97;4.53;;;-1.80;99.90;;;-1.93;63.00;102184.22;5044289;28;20451;-65
2023/02/05 07:05:48;;;;;;;5.40;3.90;;;-1.80;99.90;;;-1.91;63.10;102180.16;5048757;28;20513;-65
2023/02/05 07:08:17;;;;;;;5.67;3.90;;;-1.80;99.90;;;-1.90;63.49;102176.88;5053290;28;20199;-67
2023/02/05 07:10:45;;;;;;;6.53;3.57;;;-1.80;99.90;;;-1.89;63.05;102182.03;5049116;28;20225;-67
2023/02/05 07:13:14;;;;;;;5.03;3.40;;;-1.80;99.90;;;-1.86;63.33;102184.78;5052780;28;20206;-66
2023/02/05 07:15:43;;;;;;;4.97;3.43;;;-1.80;99.90;;;-1.86;63.47;102184.78;5049185;28;20284;-67
2023/02/05 07:18:11;;;;;;;5.83;3.47;;;-1.80;99.90;;;-1.82;63.22;102193.47;5048964;28;20621;-66
2023/02/05 07:20:41;;;;;;;6.63;3.93;;;-1.70;99.90;;;-1.80;63.74;102199.53;5045601;28;20210;-66
2023/02/05 07:23:10;;;;;;;4.57;3.17;;;-1.70;99.90;;;-1.77;62.96;102197.19;5048462;28;20206;-67
2023/02/05 07:25:38;;;;;;;6.57;3.47;;;-1.70;99.90;;;-1.75;62.71;102198.19;5053622;28;20213;-67
2023/02/05 07:28:08;;;;;;;5.80;3.83;;;-1.60;99.90;;;-1.72;62.82;102198.44;5046523;28;20624;-68
2023/02/05 07:30:37;;;;;;;4.87;3.30;;;-1.60;99.90;;;-1.71;63.06;102192.59;5049672;28;20325;-63
2023/02/05 07:33:06;;;;;;;5.20;3.47;;;-1.60;99.90;;;-1.68;63.14;102195.34;5049414;28;20201;-63
2023/02/05 07:35:38;;;;;;;6.80;4.10;;;-1.50;99.90;;;-1.64;63.08;102207.44;5049624;28;20265;-65
2023/02/05 07:38:09;;;;;;;4.80;2.97;;;-1.50;99.90;;;-1.64;62.27;102207.44;5050121;28;20202;-66
2023/02/05 07:40:38;;;;;;;4.50;3.43;;;-1.50;99.90;;;-1.62;62.11;102205.00;5046713;28;20529;-65
2023/02/05 07:43:06;;;;;;;5.37;3.70;;;-1.40;99.90;;;-1.56;62.19;102205.47;5047624;28;20263;-64
2023/02/05 07:45:35;;;;;;;5.10;3.67;;;-1.40;99.90;;;-1.52;62.22;102200.72;5052304;28;20674;-65
2023/02/05 07:48:04;;;;;;;4.93;3.17;;;-1.30;99.90;;;-1.46;61.99;102203.69;5048938;28;20210;-66
2023/02/05 07:50:32;;;;;;;4.20;2.93;;;-1.20;99.90;;;-1.39;61.73;102210.09;5051656;28;20229;-65
2023/02/05 07:53:01;;;;;;;4.60;3.60;;;-1.20;99.90;;;-1.37;61.47;102212.72;5051766;28;20265;-63
2023/02/05 07:55:30;;;;;;;5.57;3.73;;;-1.20;99.90;;;-1.34;61.89;102213.81;5046639;28;20225;-67
2023/02/05 07:57:59;;;;;;;4.87;3.60;;;-1.10;99.90;;;-1.31;61.57;102218.22;5050529;28;20269;-65
2023/02/05 08:00:28;;;;;;;5.47;3.53;;;-1.10;99.90;;;-1.31;61.44;102213.16;5044671;28;20198;-65
2023/02/05 08:02:56;;;;;;;5.07;3.63;;;-1.10;99.90;;;-1.31;61.15;102208.09;5041795;28;20259;-66
2023/02/05 08:05:25;;;;;;;5.53;4.23;;;-1.10;99.90;;;-1.26;61.55;102211.81;5049711;28;20209;-65
2023/02/05 08:07:53;;;;;;;8.23;4.10;;;-1.00;99.90;;;-1.17;61.41;102216.66;5048738;28;20252;-67
2023/02/05 08:10:22;;;;;;;5.93;4.03;;;-0.90;99.90;;;-1.07;61.10;102219.06;5051794;28;20230;-64
2023/02/05 08:12:52;;;;;;;5.70;3.97;;;-0.90;99.90;;;-1.01;60.79;102209.38;5044773;28;20465;-68
2023/02/05 08:15:20;;;;;;;5.50;4.10;;;-0.80;99.90;;;-0.92;60.80;102206.59;5048651;28;20209;-66
2023/02/05 08:17:49;;;;;;;5.70;3.90;;;-0.70;99.90;;;-0.78;60.60;102218.56;5046192;28;20315;-67
2023/02/05 08:20:18;;;;;;;7.50;3.90;;;-0.50;99.90;;;-0.60;60.69;102227.41;5044902;28;20647;-67
2023/02/05 08:22:46;;;;;;;5.47;4.03;;;-0.40;99.90;;;-0.30;60.24;102240.41;5049632;28;20558;-66
2023/02/05 08:25:16;;;;;;;7.10;3.80;;;0.00;99.90;;;-0.03;59.38;102237.22;5044750;28;20309;-66
2023/02/05 08:27:44;;;;;;;5.37;4.10;;;0.20;99.90;;;0.07;59.00;102251.34;5041628;28;20631;-66
2023/02/05 08:30:19;;;;;;;6.50;3.67;;;0.30;99.90;;;0.12;58.46;102251.69;5045666;28;20246;-66
2023/02/05 08:32:48;;;;;;;8.70;4.40;;;0.40;99.90;;;0.09;57.88;102259.06;5042782;28;20620;-67
2023/02/05 08:35:17;;;;;;;5.10;4.03;;;0.30;99.90;;;0.03;57.88;102259.53;5044488;28;20214;-67
2023/02/05 08:37:45;;;;;;;4.73;3.70;;;0.20;99.90;;;-0.06;57.99;102262.34;5040997;28;20674;-66
2023/02/05 08:40:14;;;;;;;6.47;4.10;;;0.20;99.90;;;-0.08;57.95;102258.81;5041868;28;20356;-66
2023/02/05 08:42:43;;;;;;;6.40;3.67;;;0.20;99.90;;;-0.10;58.18;102256.97;5043622;28;20214;-65
2023/02/05 08:45:11;;;;;;;5.47;4.00;;;0.10;99.90;;;-0.15;58.08;102246.50;5048438;28;20248;-67
2023/02/05 08:47:41;;;;;;;7.03;3.87;;;0.00;99.90;;;-0.22;58.30;102251.97;5052636;28;20202;-66
2023/02/05 08:50:10;;;;;;;8.03;4.57;;;0.00;99.90;;;-0.26;58.40;102262.63;5048839;28;20229;-67
2023/02/05 08:52:39;;;;;;;6.00;4.00;;;-0.10;99.90;;;-0.29;58.45;102264.97;5040144;28;20754;-70
2023/02/05 08:55:07;;;;;;;6.97;4.40;;;0.00;99.90;;;-0.29;58.34;102263.31;5044364;28;20233;-71
2023/02/05 08:57:37;;;;;;;6.70;4.40;;;-0.10;99.90;;;-0.31;58.35;102259.78;5041441;28;20578;-74
2023/02/05 09:00:07;;;;;;;8.83;4.40;;;-0.10;99.90;;;-0.34;58.56;102267.19;5052198;28;20213;-68
2023/02/05 09:02:35;;;;;;;8.30;4.70;;;-0.20;99.90;;;-0.33;58.60;102278.19;5051698;28;20226;-69
2023/02/05 09:05:06;;;;;;;6.80;4.47;;;-0.20;99.90;;;-0.33;58.29;102275.66;5050496;28;20210;-69
2023/02/05 09:07:38;;;;;;;7.60;4.30;;;-0.20;99.90;;;-0.29;58.71;102285.25;5050404;28;20202;-70
2023/02/05 09:10:08;;;;;;;7.20;4.57;;;-0.10;99.90;;;-0.22;58.65;102297.56;5049654;28;20201;-70
2023/02/05 09:12:37;;;;;;;7.40;4.40;;;0.00;99.90;;;-0.11;58.88;102293.19;5045933;28;20209;-70
2023/02/05 09:15:06;;;;;;;8.27;4.47;;;0.10;99.90;;;0.06;58.48;102297.75;5053523;28;20210;-67
2023/02/05 09:17:35;;;;;;;8.33;4.77;;;0.20;99.90;;;0.23;58.06;102291.28;5053220;28;20550;-71
2023/02/05 09:20:06;;;;;;;6.57;4.60;;;0.40;99.90;;;0.51;58.13;102293.97;5051524;28;20233;-65
2023/02/05 09:22:34;;;;;;;6.83;4.77;;;0.70;99.90;;;0.91;56.92;102310.09;5039496;28;20202;-66
2023/02/05 09:25:02;;;;;;;7.10;4.63;;;1.10;99.90;;;2.25;58.16;102303.03;5052332;28;20201;-70
2023/02/05 09:27:31;;;;;;;7.67;4.63;;;2.50;99.90;;;3.21;54.26;102298.28;5058098;28;20618;-65
2023/02/05 09:30:00;;;;;;;7.23;4.33;;;3.30;99.90;;;3.68;50.99;102301.63;5055313;28;20242;-69
2023/02/05 09:32:29;;;;;;;5.10;4.13;;;3.70;99.90;;;3.47;48.13;102306.47;5057478;28;20222;-70
2023/02/05 09:34:57;;;;;;;6.27;4.40;;;3.60;99.90;;;3.17;47.88;102309.13;5058830;28;20576;-66
2023/02/05 09:37:27;;;;;;;5.90;4.23;;;3.30;99.90;;;2.85;48.51;102310.75;5055712;28;20201;-66
2023/02/05 09:39:56;;;;;;;7.77;4.93;;;2.90;99.90;;;2.54;49.45;102315.78;5053530;28;20198;-69
2023/02/05 09:42:55;;;;;;;7.00;4.57;;;2.60;99.90;;;2.13;49.38;102313.34;5060145;28;20332;-71
2023/02/05 09:45:38;;;;;;;7.07;4.53;;;2.20;99.90;;;1.84;50.95;102312.50;5050878;28;20264;-67
2023/02/05 09:48:48;;;;;;;6.87;4.33;;;1.90;99.90;;;1.57;51.05;102323.50;5053062;28;20212;-66
2023/02/05 09:51:21;;;;;;;7.30;4.73;;;1.70;99.90;;;1.33;51.94;102316.16;5052342;28;20229;-66
2023/02/05 09:53:57;;;;;;;6.40;4.27;;;1.40;99.90;;;1.10;52.23;102309.59;5059258;28;20252;-66
2023/02/05 09:56:28;;;;;;;5.87;4.47;;;1.20;99.90;;;0.83;52.90;102308.72;5052460;28;20198;-66
2023/02/05 09:58:58;;;;;;;5.60;4.63;;;0.90;99.90;;;0.56;53.31;102309.50;5056499;28;20255;-71
2023/02/05 10:01:41;;;;;;;6.67;4.53;;;0.70;99.90;;;0.37;54.75;102317.53;5053348;28;20210;-66
2023/02/05 10:04:10;;;;;;;6.37;4.30;;;0.50;99.90;;;0.20;55.09;102316.44;5051495;28;20681;-67
2023/02/05 10:07:17;;;;;;;5.77;4.17;;;0.40;99.90;;;0.11;55.81;102318.31;5053333;28;20289;-65
2023/02/05 10:10:25;;;;;;;7.50;4.10;;;0.30;99.90;;;0.02;55.73;102316.06;5054492;28;20241;-65
2023/02/05 10:13:35;;;;;;;5.77;3.73;;;0.20;99.90;;;-0.09;55.66;102312.81;5046122;28;20197;-65
2023/02/05 10:16:34;;;;;;;3.47;2.57;;;0.10;99.90;;;-0.22;55.21;102310.22;5049563;28;20730;-65
2023/02/05 10:19:42;;;;;;;3.47;2.70;;;0.00;99.90;;;-0.35;54.76;102312.69;5044901;28;20654;-64
2023/02/05 10:22:23;;;;;;;2.70;2.07;;;-0.10;99.90;;;-0.43;54.50;102321.41;5048683;28;20202;-68
2023/02/05 10:25:31;;;;;;;3.97;2.90;;;-0.20;99.90;;;-0.46;55.08;102321.19;5053039;28;20719;-65
2023/02/05 10:28:10;;;;;;;4.40;2.67;;;-0.30;99.90;;;-0.48;55.35;102305.88;5033197;28;20234;-65
2023/02/05 10:30:50;;;;;;;4.57;2.87;;;-0.30;99.90;;;-0.47;55.51;102310.19;5052233;28;20241;-67
2023/02/05 10:33:40;;;;;;;3.83;2.93;;;-0.20;99.90;;;-0.42;55.55;102310.50;5046115;28;20240;-66
2023/02/05 10:36:11;;;;;;;4.00;3.20;;;-0.20;99.90;;;-0.31;55.37;102314.66;5042930;28;20206;-67